AirNav   Duncan Aviation - Near you to keep you flying
 
 1060 users online  

MO99 Miller Airport
Climax Springs, Missouri, USA

GOING TO CLIMAX SPRINGS?


FAA INFORMATION EFFECTIVE 03 NOVEMBER 2022

Location

FAA Identifier: MO99
Lat/Long: 38-06-59.1080N 093-04-37.7020W
38-06.985133N 093-04.628367W
38.1164189,-93.0771394
(estimated)
Elevation: 1000 ft. / 305 m (estimated)
Variation: 04E (1985)
From city: 2 miles W of CLIMAX SPRINGS, MO
Time zone: UTC -6 (UTC -5 during Daylight Saving Time)
Zip code: 65326

Airport Operations

Airport use: Private use. Permission required prior to landing
Activation date: 06/1962
Control tower: no
ARTCC: KANSAS CITY CENTER
FSS: COLUMBIA FLIGHT SERVICE STATION
Attendance: UNATNDD
Wind indicator: yes
Segmented circle: no

Airport Communications

WX AWOS-3PT at RAW (19 nm NW): 118.325 (660-547-3761)

Nearby radio navigation aids

VOR radial/distance  VOR name  Freq  Var
SHYr281/22.9SUNSHINE VOR/DME108.4000E

Airport Services

Airframe service: NONE
Powerplant service: NONE

Runway Information

Runway 7/25

Dimensions: 2600 x 100 ft. / 792 x 30 m
Surface: turf
RUNWAY 7  RUNWAY 25
Traffic pattern: leftleft

Airport Ownership and Management from official FAA records

Ownership: Privately-owned
Owner: WILLIAM D. MILLER
BOX 97
CLEVELAND, MO 64734
Phone 816-658-3519

Airport Operational Statistics

Aircraft based on the field: 3
Single engine airplanes: 3
    

Additional Remarks

VERY SOFT AND MUDDY DURING RAINY SEASON OR AFTER THAW.
DEER ON THE RWY.
FOR CD CTC WHITEMAN APCH AT 660-687-3132. WHEN WHITEMAN APCH IS CLSD, CTC KANSAS CITY ARTCC AT 913-254-8508.

Instrument Procedures

There are no published instrument procedures at MO99.

Some nearby airports with instrument procedures:

K15 - Grand Glaize-Osage Beach Airport (19 nm E)
KRAW - Warsaw Municipal Airport (19 nm NW)
KOZS - Camdenton Memorial-Lake Regional Airport (20 nm SE)
KAIZ - Lee C Fine Memorial Airport (25 nm E)
H79 - Eldon Model Airpark (28 nm NE)
 
Loc | Ops | Rwys | IFR | FBO | Links
Com | Nav | Svcs | Stats | Notes
Area around MO99 (Miller Airport)
 
Road maps at: MapQuest Bing Google
 
Aerial photo
No photo
 
Sectional chart

 
Airport distance calculator
Flying to Miller Airport? Find the distance to fly.

From to MO99

Sunrise and sunset
Times for 29-Nov-2022
 Local
(UTC-6)
 Zulu
(UTC)
Morning civil twilight06:4012:40
Sunrise07:0913:09
Sunset16:5222:52
Evening civil twilight17:2123:21

Current date and time
Zulu (UTC)  30-Nov-2022 00:18:13
Local (UTC-6)  29-Nov-2022 18:18:13
 
METAR
KRAW 
19nm NW 
292355Z AUTO 34013G22KT 10SM OVC017 01/M01 A2981 RMK AO2
KOZS 
20nm SE 
292355Z AUTO 29020G32KT 10SM BKN021 06/01 A2975 RMK AO2
KAIZ 
26nm E 
292356Z AUTO 29011G20KT 10SM BKN021 07/02 RMK AO2 SLPNO T00720022 10211 20072 $
KGLY 
32nm NW 
292355Z AUTO 33013KT 10SM OVC019 02/M02 A2984 RMK AO2
KLBO 
35nm SE 
292355Z AUTO 30018G24KT 10SM CLR 07/02 A2973 RMK AO2
KDMO 
36nm N 
292353Z AUTO 32020G32KT 10SM OVC016 02/M02 A2981 RMK AO2 PK WND 33032/2353 SLP099 T00171022 10189 20017 51076
TAF
KSZL 
42nm NW 
292139Z 2921/0101 31015G25KT 9999 BKN020 620204 QNH2965INS BECMG 2921/2923 30015G25KT 9999 OVC015 620155 QNH2975INS BECMG 3003/3004 31015G25KT 9999 BKN030 620303 QNH2980INS BECMG 3006/3007 30012KT 9999 FEW120 QNH3010INS BECMG 3015/3016 29012G20KT 9999 SKC QNH3030INS TX05/2922Z TNM03/3012Z
NOTAMs
Click for the latest NOTAMs
NOTAMs are issued by the DoD/FAA and will open in a separate window not controlled by AirNav.

 

 
 

Would you like to see your business listed on this page?

 If your business provides an interesting product or service to pilots, flight crews, aircraft, or users of the Miller Airport, you should consider listing it here.  To start the listing process, click on the button below
 
Add a business
 

Other Pages about Miller Airport

Update a link
 
Copyright © AirNav, LLC. All rights reserved. Privacy Policy  Contact